No Warnings, Watches, or Advisories

Active alerts


No alerts

Amazon Weather

Hours of Daylight

9 hrs 34 min 31 sec
of Daylight Today
graph 39.9% Day 60.1% Night Which is
1 min 34 sec Shorter
Than Yesterday

South West Webcam Still Photo more information South West Webcam Still Photo


You find our weather info also at:

UK Metoffice

Weather Underground

Mid-Atlantic Weather Network

WeatherlinkIP

Citizen Weather Observer Program (CWOP)

HAMweather, WeatherForYou, PWS Weather



Nearby METAR Reports

   
KDUJ - Du Bois, Pennsylvania, USA
Distance from station: NNE 16 mi
Updated: Nov 25 2017 1:53 am
Clear  
Clear  
   Wind: SSW 4.6 mph
Wind: SSW 4.6 mph
Temperature: 44.6°F
Wind Chill: 42.8°F
Dew Point: 17.6°F
Humidity: 34%
Barometer: 29.71 inHg
Clouds: Clear
Visibility: 10 mi
Cloud details: Clear
KDUJ 250653Z AUTO 20004KT 10SM CLR 07/M08 A2971 RMK AO2 SLP065 T00721078
KIDI - Indiana/Stewart, Pennsylvania, USA
Distance from station: SSW 23 mi
Updated: Nov 25 2017 2:35 am
Clear  
Clear  
   Wind: SW 5.8 mph
Wind: SW 5.8 mph
Temperature: 42.8°F
Wind Chill: 39.2°F
Dew Point: 23°F
Humidity: 46%
Barometer: 29.78 inHg
Clouds: Clear
Visibility: 10 mi
Cloud details: Clear
KIDI 250735Z AUTO 23005KT 10SM CLR 06/M05 A2978 RMK A01
KFIG - Clearfield, Pennsylvania, USA
Distance from station: ENE 31 mi
Updated: Nov 25 2017 1:54 am
Clear  
Clear  
   Wind: Calm
Wind: Calm
Temperature: 30.2°F
Dew Point: 24.8°F
Humidity: 80%
Barometer: 29.76 inHg
Clouds: Clear
Visibility: 10 mi
Cloud details: Clear
KFIG 250654Z AUTO 00000KT 10SM CLR M01/M04 A2976 RMK AO2 SLP084 T10111044
KJST - Johnstown, Pennsylvania, USA
Distance from station: S 44 mi
Updated: Nov 25 2017 1:54 am
Clear  
Clear  
   Wind: SSW 11.5 mph
Wind: SSW 11.5 mph
Temperature: 46.4°F
Wind Chill: 41°F
Dew Point: 19.4°F
Humidity: 34%
Barometer: 29.75 inHg
Clouds: Clear
Visibility: 10 mi
Cloud details: Clear
KJST 250654Z AUTO 20010KT 10SM CLR 08/M07 A2975 RMK AO2 SLP076 T00831067
KPIT - Pittsburgh, Pennsylvania, USA
Distance from station: WSW 74 mi
Updated: Nov 25 2017 1:51 am
Few Clouds  
Few Clouds  
   Wind: South 4.6 mph
Wind: South 4.6 mph
Temperature: 44.6°F
Wind Chill: 42.8°F
Dew Point: 21.2°F
Humidity: 39%
Barometer: 29.72 inHg
Clouds: Few Clouds
Visibility: 10 mi
Cloud details: Few Clouds 13000 ft,
Few Clouds 20000 ft
KPIT 250651Z 19004KT 10SM FEW130 FEW200 07/M06 A2972 RMK AO2 SLP075 T00671061
KLBE - Latrobe/Westmorl, Pennsylvania, USA
Distance from station: SSW 52 mi
Updated: Nov 25 2017 2:35 am
Clear  
Clear  
   Wind: SW 6.9 mph
Wind: SW 6.9 mph
Temperature: 41°F
Wind Chill: 35.6°F
Dew Point: 24.8°F
Humidity: 53%
Barometer: 29.76 inHg
Clouds: Clear
Visibility: 10 mi
Cloud details: Clear
KLBE 250735Z AUTO 22006KT 10SM CLR 05/M04 A2976 RMK AO2
KBTP - Butler Co., Pennsylvania, USA
Distance from station: WSW 52 mi
Updated: Nov 25 2017 1:56 am
Clear  
Clear  
   Wind: SSW 8.1 mph
Wind: SSW 8.1 mph
Temperature: 44.6°F
Wind Chill: 39.2°F
Dew Point: 21.2°F
Humidity: 39%
Barometer: 29.73 inHg
Clouds: Clear
Visibility: 10 mi
Cloud details: Clear
KBTP 250656Z AUTO 20007KT 10SM CLR 07/M06 A2973 RMK AO2 SLP076 T00671061
KUCP - New Castle Muni, Pennsylvania, USA
Distance from station: W 75 mi
Updated: Nov 25 2017 1:56 am
Clear  
Clear  
   Wind: varies 4.6 mph
Wind: varies 4.6 mph
Temperature: 46.4°F
Wind Chill: 44.6°F
Dew Point: 23°F
Humidity: 40%
Barometer: 29.7 inHg
Clouds: Clear
Visibility: 10 mi
Cloud details: Clear
KUCP 250656Z AUTO VRB04KT 10SM CLR 08/M05 A2970 RMK AO2 SLP075 T00831050
KFKL - Franklin, Pennsylvania, USA
Distance from station: WNW 54 mi
Updated: Nov 25 2017 1:56 am
Clear  
Clear  
   Wind: SSW 11.5 mph
Wind: SSW 11.5 mph
Temperature: 44.6°F
Wind Chill: 39.2°F
Dew Point: 21.2°F
Humidity: 39%
Barometer: 29.69 inHg
Clouds: Clear
Visibility: 10 mi
Cloud details: Clear
KFKL 250656Z AUTO 20010KT 10SM CLR 07/M06 A2969 RMK AO2 SLP059 T00721056
KAOO - Altoona, Pennsylvania, USA
Distance from station: SE 57 mi
Updated: Nov 25 2017 1:53 am
Clear  
Clear  
   Wind: South 3.5 mph
Wind: South 3.5 mph
Temperature: 37.4°F
Wind Chill: 35.6°F
Dew Point: 24.8°F
Humidity: 60%
Barometer: 29.78 inHg
Clouds: Clear
Visibility: 10 mi
Cloud details: Clear
KAOO 250653Z AUTO 19003KT 10SM CLR 03/M04 A2978 RMK AO2 SLP091 T00331044
KUNV - State College, Pennsylvania, USA
Distance from station: E 61 mi
Updated: Nov 25 2017 2:35 am
Clear  
Clear  
   Wind: West 4.6 mph
Wind: West 4.6 mph
Temperature: 37.4°F
Wind Chill: 33.8°F
Dew Point: 24.8°F
Humidity: 60%
Barometer: 29.78 inHg
Clouds: Clear
Visibility: 10 mi
Cloud details: Clear
KUNV 250735Z AUTO 28004KT 10SM CLR 03/M04 A2978 RMK AO2 T00301045
KBFD - Bradford, Pennsylvania, USA
Distance from station: NNE 62 mi
Updated: Nov 25 2017 1:53 am
Clear  
Clear  
   Wind: SSW 10.4 mph
Wind: SSW 10.4 mph
Temperature: 44.6°F
Wind Chill: 39.2°F
Dew Point: 19.4°F
Humidity: 37%
Barometer: 29.69 inHg
Clouds: Clear
Visibility: 10 mi
Cloud details: Clear
KBFD 250653Z AUTO 21009KT 10SM CLR 07/M07 A2969 RMK AO2 SLP057 T00721072

Script developed by  Saratoga-weather.org Adapted for the template by  Weerstation Leuven

Equipment we use:

Weather-station
Davis VP2

Weather-program
Cumulus

Weather-server
Dell Inspiron 3521

Provider
Host On A Rope

Davis VP2

Cumulus

Dell Inspiron 3521

Host On A Rope